Time;durP1;ratioP1;P1;durP2;ratioP2;P2;SDS_P1;SDS_P2;PMS_P1;PMS_P2;Temp;Humidity;BMP_temperature;BMP_pressure;BME280_temperature;BME280_humidity;BME280_pressure;Samples;Min_cycle;Max_cycle;Signal;HPM_P1;HPM_P2
2022/11/05 00:10:20;;;;;;;16.80;8.10;;;4.70;99.90;;;;;;5032657;28;20290;-94
2022/11/05 00:18:16;;;;;;;13.40;6.30;;;4.60;99.90;;;;;;5025699;28;20219;-92
2022/11/05 00:20:44;;;;;;;12.27;7.07;;;4.60;99.90;;;;;;5019425;28;20229;-93
2022/11/05 00:25:57;;;;;;;17.33;6.73;;;4.60;99.90;;;;;;5037828;28;20226;-93
2022/11/05 00:28:24;;;;;;;16.23;7.03;;;4.60;99.90;;;;;;5022008;28;20230;-95
2022/11/05 00:30:51;;;;;;;14.97;6.70;;;4.60;99.90;;;;;;5047068;28;20293;-94
2022/11/05 00:33:18;;;;;;;11.30;5.67;;;4.60;99.90;;;;;;5020391;28;20381;-95
2022/11/05 00:35:46;;;;;;;9.53;5.63;;;4.60;99.90;;;;;;5033698;28;20234;-94
2022/11/05 00:38:13;;;;;;;9.97;5.33;;;4.60;99.90;;;;;;5054588;28;20222;-93
2022/11/05 00:40:40;;;;;;;8.93;4.80;;;4.60;99.90;;;;;;5048691;28;20239;-93
2022/11/05 00:45:52;;;;;;;8.53;4.63;;;4.60;99.90;;;;;;5034196;28;20896;-94
2022/11/05 00:51:04;;;;;;;10.80;5.20;;;4.70;99.90;;;;;;5029835;28;20215;-94
2022/11/05 00:53:31;;;;;;;9.23;5.03;;;4.70;99.90;;;;;;5048519;28;20269;-94
2022/11/05 00:56:01;;;;;;;8.37;4.50;;;4.70;99.90;;;;;;5014013;28;20255;-94
2022/11/05 00:58:31;;;;;;;7.97;4.03;;;4.70;99.90;;;;;;5037985;28;20222;-95
2022/11/05 01:01:03;;;;;;;5.63;4.33;;;4.80;99.90;;;;;;5026618;28;20222;-94
2022/11/05 01:03:33;;;;;;;9.70;4.63;;;4.80;99.90;;;;;;5047850;28;20223;-94
2022/11/05 01:06:09;;;;;;;9.20;4.27;;;4.80;99.90;;;;;;5019466;28;20230;-93
2022/11/05 01:08:36;;;;;;;9.90;4.53;;;4.90;99.90;;;;;;5015926;28;20289;-93
2022/11/05 01:11:09;;;;;;;8.73;4.47;;;4.90;99.90;;;;;;5031018;28;20241;-93
2022/11/05 01:13:36;;;;;;;8.00;4.53;;;5.00;99.90;;;;;;5040771;28;20243;-94
2022/11/05 01:16:07;;;;;;;9.00;4.60;;;5.00;99.90;;;;;;5026262;28;20218;-93
2022/11/05 01:18:33;;;;;;;7.77;4.60;;;5.00;99.90;;;;;;5038418;28;20226;-94
2022/11/05 01:21:12;;;;;;;6.87;4.03;;;5.10;99.90;;;;;;5037899;28;20277;-93
2022/11/05 01:23:39;;;;;;;14.90;5.07;;;5.20;99.90;;;;;;5032951;28;20663;-94
2022/11/05 01:26:06;;;;;;;9.13;4.73;;;5.20;99.90;;;;;;5017223;28;20743;-94
2022/11/05 01:28:32;;;;;;;7.73;4.37;;;5.20;99.90;;;;;;5054698;28;20234;-95
2022/11/05 01:30:59;;;;;;;9.00;4.00;;;5.20;99.90;;;;;;5045669;28;20221;-93
2022/11/05 01:33:26;;;;;;;11.57;4.77;;;5.20;99.90;;;;;;5022712;28;20264;-95
2022/11/05 01:35:53;;;;;;;10.83;4.60;;;5.20;99.90;;;;;;5029508;28;20228;-94
2022/11/05 01:38:21;;;;;;;9.30;4.40;;;5.20;99.90;;;;;;5048213;28;20261;-93
2022/11/05 01:40:48;;;;;;;8.67;4.10;;;5.10;99.90;;;;;;5016777;28;20241;-93
2022/11/05 01:43:17;;;;;;;12.50;4.23;;;5.10;99.90;;;;;;5019259;28;20223;-94
2022/11/05 01:45:47;;;;;;;6.57;4.87;;;5.10;99.90;;;;;;5031815;28;20229;-95
2022/11/05 01:48:20;;;;;;;6.80;3.93;;;5.00;99.90;;;;;;5040785;28;20233;-94
2022/11/05 01:50:53;;;;;;;5.60;3.23;;;5.00;99.90;;;;;;5019122;28;20242;-94
2022/11/05 01:53:26;;;;;;;12.23;3.93;;;4.90;99.90;;;;;;5053456;28;20509;-94
2022/11/05 01:55:57;;;;;;;6.33;3.80;;;4.80;99.90;;;;;;5057569;28;20241;-94
2022/11/05 01:58:28;;;;;;;8.83;4.00;;;4.80;99.90;;;;;;5042675;28;20261;-94
2022/11/05 02:00:56;;;;;;;10.70;3.83;;;4.70;99.90;;;;;;5068274;28;20221;-95
2022/11/05 02:03:24;;;;;;;9.43;3.70;;;4.60;99.90;;;;;;5025193;28;20400;-93
2022/11/05 02:05:55;;;;;;;6.77;3.33;;;4.60;99.90;;;;;;5006986;28;20218;-95
2022/11/05 02:08:35;;;;;;;8.50;3.57;;;4.50;99.90;;;;;;5047093;28;20222;-94
2022/11/05 02:11:03;;;;;;;10.10;4.37;;;4.50;99.90;;;;;;5059009;28;20250;-94
2022/11/05 02:13:31;;;;;;;6.97;4.17;;;4.40;99.90;;;;;;5033342;28;20229;-94
2022/11/05 02:16:05;;;;;;;10.67;3.80;;;4.30;99.90;;;;;;5019023;28;20249;-94
2022/11/05 02:18:44;;;;;;;8.93;4.00;;;4.20;99.90;;;;;;5028365;28;20317;-95
2022/11/05 02:21:40;;;;;;;5.97;3.90;;;4.20;99.90;;;;;;5028500;28;20245;-93
2022/11/05 02:24:39;;;;;;;14.27;3.90;;;4.10;99.90;;;;;;5025424;28;20321;-95
2022/11/05 02:27:26;;;;;;;10.63;3.87;;;4.10;99.90;;;;;;5026260;28;20221;-94
2022/11/05 02:30:12;;;;;;;7.40;3.77;;;4.00;99.90;;;;;;5035398;28;20338;-93
2022/11/05 02:33:11;;;;;;;10.57;4.60;;;3.90;99.90;;;;;;5013922;28;20222;-93
2022/11/05 02:35:53;;;;;;;11.23;4.00;;;3.90;99.90;;;;;;5007287;28;20211;-93
2022/11/05 02:38:36;;;;;;;12.27;3.90;;;3.80;99.90;;;;;;5003007;28;20226;-94
2022/11/05 02:41:14;;;;;;;9.33;4.03;;;3.80;99.90;;;;;;5024983;28;20231;-93
2022/11/05 02:43:48;;;;;;;9.07;3.57;;;3.70;99.90;;;;;;5014698;28;20222;-93
2022/11/05 02:46:31;;;;;;;8.50;3.80;;;3.70;99.90;;;;;;5010514;28;20284;-93
2022/11/05 02:49:04;;;;;;;8.40;3.77;;;3.70;99.90;;;;;;5024279;28;20228;-93
2022/11/05 02:51:39;;;;;;;9.10;4.03;;;3.60;99.90;;;;;;5024049;28;20241;-93
2022/11/05 02:54:13;;;;;;;8.63;3.50;;;3.60;99.90;;;;;;5037557;28;20230;-94
2022/11/05 02:56:44;;;;;;;9.10;3.30;;;3.60;99.90;;;;;;5013299;28;20311;-94
2022/11/05 02:59:10;;;;;;;10.77;3.73;;;3.50;99.90;;;;;;5015513;28;20225;-95
2022/11/05 03:01:38;;;;;;;7.43;3.97;;;3.50;99.90;;;;;;5010794;28;20257;-93
2022/11/05 03:04:09;;;;;;;8.17;3.77;;;3.50;99.90;;;;;;5028723;28;20302;-93
2022/11/05 03:06:57;;;;;;;11.23;4.83;;;3.50;99.90;;;;;;5010750;28;20226;-94
2022/11/05 03:09:40;;;;;;;14.07;4.07;;;3.50;99.90;;;;;;5032628;28;20283;-93
2022/11/05 03:12:20;;;;;;;11.40;4.13;;;3.40;99.90;;;;;;5041695;28;20292;-92
2022/11/05 03:14:56;;;;;;;9.13;4.10;;;3.40;99.90;;;;;;5017524;28;20263;-93
2022/11/05 03:17:31;;;;;;;7.60;3.83;;;3.40;99.90;;;;;;5042559;28;20310;-94
2022/11/05 03:20:07;;;;;;;9.20;4.40;;;3.30;99.90;;;;;;5009771;28;20317;-94
2022/11/05 03:22:40;;;;;;;10.90;3.90;;;3.30;99.90;;;;;;5029994;28;20234;-93
2022/11/05 03:25:12;;;;;;;7.27;4.27;;;3.30;99.90;;;;;;5021586;28;20221;-93
2022/11/05 03:27:44;;;;;;;11.37;4.10;;;3.20;99.90;;;;;;5009890;28;20296;-93
2022/11/05 03:30:13;;;;;;;13.43;4.50;;;3.20;99.90;;;;;;5031935;28;20252;-94
2022/11/05 03:32:44;;;;;;;9.63;3.77;;;3.20;99.90;;;;;;5023566;28;20387;-94
2022/11/05 03:35:15;;;;;;;11.80;4.30;;;3.10;99.90;;;;;;5046731;28;20314;-94
2022/11/05 03:37:45;;;;;;;18.37;4.53;;;3.10;99.90;;;;;;5029900;28;20303;-94
2022/11/05 03:40:16;;;;;;;10.40;4.37;;;3.00;99.90;;;;;;5015820;28;20226;-93
2022/11/05 03:42:49;;;;;;;18.60;4.40;;;3.00;99.90;;;;;;5005463;28;20228;-93
2022/11/05 03:45:20;;;;;;;9.73;3.80;;;3.00;99.90;;;;;;5013666;28;20226;-93
2022/11/05 03:47:51;;;;;;;10.40;3.90;;;3.00;99.90;;;;;;5044992;28;20297;-93
2022/11/05 03:50:27;;;;;;;10.77;3.97;;;2.90;99.90;;;;;;5029669;28;20804;-94
2022/11/05 03:53:03;;;;;;;7.73;4.13;;;2.90;99.90;;;;;;5043202;28;20252;-94
2022/11/05 03:55:38;;;;;;;8.37;4.10;;;2.90;99.90;;;;;;5032465;28;20228;-94
2022/11/05 03:58:06;;;;;;;7.90;3.63;;;2.90;99.90;;;;;;5051061;28;20734;-95
2022/11/05 04:00:33;;;;;;;5.30;3.57;;;2.90;99.90;;;;;;5021562;28;20218;-93
2022/11/05 04:03:00;;;;;;;8.43;3.70;;;2.90;99.90;;;;;;5022654;28;20670;-94
2022/11/05 04:05:28;;;;;;;6.60;4.03;;;2.80;99.90;;;;;;5044271;28;20231;-94
2022/11/05 04:13:26;;;;;;;9.33;3.60;;;2.80;99.90;;;;;;5032652;28;20274;-93
2022/11/05 04:18:39;;;;;;;7.03;3.43;;;2.70;99.90;;;;;;5027156;28;20216;-93
2022/11/05 04:24:11;;;;;;;7.90;3.60;;;2.70;99.90;;;;;;5023053;28;20846;-94
2022/11/05 04:26:40;;;;;;;8.03;3.97;;;2.70;99.90;;;;;;5028798;28;20281;-93
2022/11/05 04:31:52;;;;;;;7.13;4.10;;;2.60;99.90;;;;;;5024087;28;20423;-92
2022/11/05 04:34:20;;;;;;;6.70;4.10;;;2.50;99.90;;;;;;5028722;28;20224;-94
2022/11/05 04:36:48;;;;;;;11.93;4.23;;;2.50;99.90;;;;;;5031825;28;20229;-95
2022/11/05 04:39:17;;;;;;;7.40;3.77;;;2.50;99.90;;;;;;5022493;28;20214;-95
2022/11/05 04:41:46;;;;;;;7.80;3.53;;;2.50;99.90;;;;;;5048753;28;20270;-93
2022/11/05 04:44:13;;;;;;;12.13;4.57;;;2.50;99.90;;;;;;5029305;28;20236;-93
2022/11/05 04:46:40;;;;;;;6.67;3.77;;;2.40;99.90;;;;;;5037513;28;20230;-93
2022/11/05 04:49:07;;;;;;;12.80;3.93;;;2.40;99.90;;;;;;5019880;28;20234;-94
2022/11/05 04:51:34;;;;;;;11.33;4.30;;;2.40;99.90;;;;;;5016360;28;20518;-94
2022/11/05 04:54:01;;;;;;;9.63;4.20;;;2.40;99.90;;;;;;5014959;28;20252;-94
2022/11/05 04:56:29;;;;;;;12.17;4.60;;;2.30;99.90;;;;;;5037798;28;20335;-94
2022/11/05 04:58:56;;;;;;;14.53;4.60;;;2.30;99.90;;;;;;5047041;28;20238;-94
2022/11/05 05:01:24;;;;;;;9.20;5.03;;;2.30;99.90;;;;;;5020252;28;20225;-94
2022/11/05 05:03:52;;;;;;;11.80;4.67;;;2.40;99.90;;;;;;5007525;28;20222;-93
2022/11/05 05:06:23;;;;;;;21.37;5.00;;;2.40;99.90;;;;;;5039888;28;20219;-93
2022/11/05 05:08:51;;;;;;;16.17;4.47;;;2.40;99.90;;;;;;5029989;28;20226;-93
2022/11/05 05:11:20;;;;;;;8.57;4.23;;;2.40;99.90;;;;;;5024029;28;20225;-93
2022/11/05 05:13:49;;;;;;;14.00;4.97;;;2.40;99.90;;;;;;5024510;28;20296;-94
2022/11/05 05:16:20;;;;;;;14.87;4.90;;;2.40;99.90;;;;;;5011534;28;20735;-93
2022/11/05 05:18:47;;;;;;;13.03;4.53;;;2.40;99.90;;;;;;5044696;28;20231;-93
2022/11/05 05:23:59;;;;;;;13.30;4.47;;;2.30;99.90;;;;;;5026084;28;20218;-94
2022/11/05 05:26:27;;;;;;;10.63;4.57;;;2.40;99.90;;;;;;5040899;28;20235;-95
2022/11/05 05:28:55;;;;;;;8.40;4.10;;;2.40;99.90;;;;;;5031459;28;20227;-94
2022/11/05 05:31:23;;;;;;;10.80;4.40;;;2.40;99.90;;;;;;5009582;28;20225;-93
2022/11/05 05:33:52;;;;;;;10.43;4.13;;;2.40;99.90;;;;;;5038019;28;20308;-94
2022/11/05 05:36:19;;;;;;;12.83;4.03;;;2.40;99.90;;;;;;5043796;28;20303;-95
2022/11/05 05:38:46;;;;;;;5.87;3.20;;;2.30;99.90;;;;;;5015058;28;20222;-93
2022/11/05 05:41:12;;;;;;;7.70;3.37;;;2.30;99.90;;;;;;5014629;28;20937;-95
2022/11/05 05:43:39;;;;;;;10.13;3.47;;;2.30;99.90;;;;;;5016963;28;20247;-94
2022/11/05 05:46:11;;;;;;;7.83;4.07;;;2.30;99.90;;;;;;5018977;28;20236;-94
2022/11/05 05:48:38;;;;;;;8.20;3.63;;;2.30;99.90;;;;;;5046212;28;20364;-93
2022/11/05 05:51:09;;;;;;;10.63;4.00;;;2.30;99.90;;;;;;5015918;28;20341;-95
2022/11/05 05:53:37;;;;;;;6.53;3.60;;;2.30;99.90;;;;;;5022828;28;20220;-93
2022/11/05 05:56:05;;;;;;;7.70;3.87;;;2.20;99.90;;;;;;5009428;28;20220;-93
2022/11/05 05:58:34;;;;;;;9.30;3.83;;;2.20;99.90;;;;;;5015108;28;20241;-94
2022/11/05 06:01:02;;;;;;;7.37;3.73;;;2.20;99.90;;;;;;5030632;28;20311;-94
2022/11/05 06:03:38;;;;;;;7.23;4.17;;;2.20;99.90;;;;;;5049812;28;20366;-94
2022/11/05 06:06:07;;;;;;;10.30;5.17;;;2.20;99.90;;;;;;5050008;28;20223;-93
2022/11/05 06:08:35;;;;;;;12.70;4.70;;;2.20;99.90;;;;;;5044920;28;20232;-93
2022/11/05 06:11:03;;;;;;;10.57;4.73;;;2.10;99.90;;;;;;5070720;28;20245;-95
2022/11/05 06:13:34;;;;;;;10.03;4.60;;;2.10;99.90;;;;;;5031201;28;20236;-93
2022/11/05 06:16:04;;;;;;;12.27;4.57;;;2.10;99.90;;;;;;5047174;28;20228;-94
2022/11/05 06:18:33;;;;;;;8.07;4.33;;;2.10;99.90;;;;;;5030216;28;20248;-93
2022/11/05 06:21:03;;;;;;;14.27;5.87;;;2.10;99.90;;;;;;5035790;28;20711;-96
2022/11/05 06:23:37;;;;;;;14.67;6.10;;;2.10;99.90;;;;;;5021556;28;20425;-96
2022/11/05 06:26:07;;;;;;;10.93;5.37;;;2.00;99.90;;;;;;5042301;28;20211;-96
2022/11/05 06:28:34;;;;;;;12.80;5.53;;;2.10;99.90;;;;;;5043180;28;20213;-96
2022/11/05 06:31:03;;;;;;;12.50;5.17;;;2.10;99.90;;;;;;5056538;28;20274;-96
2022/11/05 06:33:37;;;;;;;9.97;4.77;;;2.10;99.90;;;;;;5024925;28;20237;-96
2022/11/05 06:36:05;;;;;;;14.30;4.97;;;2.10;99.90;;;;;;5064635;22;20219;-78
2022/11/05 06:38:34;;;;;;;14.93;4.87;;;2.00;99.90;;;;;;5075350;28;20221;-78
2022/11/05 06:41:01;;;;;;;11.83;4.63;;;2.00;99.90;;;;;;5043562;28;20230;-78
2022/11/05 06:43:28;;;;;;;8.77;4.20;;;2.00;99.90;;;;;;5039661;28;20228;-78
2022/11/05 06:45:55;;;;;;;12.73;5.13;;;2.00;99.90;;;;;;5058260;28;20664;-78
2022/11/05 06:48:24;;;;;;;30.47;6.43;;;2.00;99.90;;;;;;5071458;28;20222;-78
2022/11/05 06:50:52;;;;;;;12.63;5.33;;;2.00;99.90;;;;;;5036899;28;20223;-78
2022/11/05 06:53:18;;;;;;;9.07;4.53;;;2.00;99.90;;;;;;5057817;28;20252;-78
2022/11/05 06:55:46;;;;;;;13.13;5.60;;;2.00;99.90;;;;;;5041929;28;20227;-78
2022/11/05 06:58:13;;;;;;;10.93;4.83;;;2.00;99.90;;;;;;5038480;28;20704;-78
2022/11/05 07:00:40;;;;;;;27.47;6.83;;;2.00;99.90;;;;;;5057481;28;20236;-78
2022/11/05 07:03:09;;;;;;;16.07;5.13;;;2.10;99.90;;;;;;5054041;28;20217;-78
2022/11/05 07:05:39;;;;;;;12.30;5.40;;;2.10;99.90;;;;;;5055448;28;20675;-79
2022/11/05 07:08:07;;;;;;;28.50;7.80;;;2.10;99.90;;;;;;5064204;28;20228;-78
2022/11/05 07:10:34;;;;;;;90.23;10.53;;;2.10;99.90;;;;;;5065339;28;20304;-78
2022/11/05 07:13:01;;;;;;;12.77;5.83;;;2.10;99.90;;;;;;5047987;28;20225;-77
2022/11/05 07:15:27;;;;;;;12.83;6.60;;;2.20;99.90;;;;;;5039378;28;20225;-77
2022/11/05 07:17:57;;;;;;;26.27;7.97;;;2.30;99.90;;;;;;5057144;28;20227;-78
2022/11/05 07:20:24;;;;;;;10.63;5.77;;;2.30;99.90;;;;;;5053156;28;20502;-78
2022/11/05 07:22:50;;;;;;;14.30;6.47;;;2.40;99.90;;;;;;5069058;28;20257;-77
2022/11/05 07:25:19;;;;;;;59.00;9.50;;;2.40;99.90;;;;;;5043321;28;20252;-77
2022/11/05 07:27:46;;;;;;;12.67;6.63;;;2.50;99.90;;;;;;5047510;28;20267;-77
2022/11/05 07:30:13;;;;;;;9.83;7.20;;;2.60;99.90;;;;;;5037379;28;20217;-78
2022/11/05 07:32:40;;;;;;;36.23;8.90;;;2.70;99.90;;;;;;5044322;28;20691;-77
2022/11/05 07:35:08;;;;;;;19.83;8.10;;;2.70;99.90;;;;;;5064350;28;20338;-77
2022/11/05 07:37:42;;;;;;;12.17;7.40;;;2.80;99.90;;;;;;5060707;28;20245;-81
2022/11/05 07:40:10;;;;;;;12.83;7.67;;;2.90;99.90;;;;;;5053402;28;20236;-78
2022/11/05 07:42:38;;;;;;;14.60;7.50;;;3.00;99.90;;;;;;5048087;28;20230;-79
2022/11/05 07:45:05;;;;;;;14.00;8.00;;;3.10;99.90;;;;;;5054077;28;20323;-79
2022/11/05 07:47:32;;;;;;;20.73;8.57;;;3.10;99.90;;;;;;5046121;28;20294;-79
2022/11/05 07:49:59;;;;;;;12.73;7.67;;;3.20;99.90;;;;;;5061668;28;20225;-78
2022/11/05 07:52:26;;;;;;;14.00;8.17;;;3.30;99.90;;;;;;5047107;28;20228;-79
2022/11/05 07:54:52;;;;;;;14.47;7.90;;;3.40;99.90;;;;;;5063718;28;20240;-80
2022/11/05 07:57:19;;;;;;;17.57;8.10;;;3.50;99.90;;;;;;5044583;28;20826;-79
2022/11/05 07:59:47;;;;;;;18.17;9.17;;;3.70;99.90;;;;;;5051270;28;20575;-78
2022/11/05 08:02:14;;;;;;;14.87;7.63;;;3.90;99.90;;;;;;5045501;28;20223;-77
2022/11/05 08:04:41;;;;;;;13.57;7.80;;;4.10;99.90;;;;;;5041045;28;20230;-78
2022/11/05 08:07:08;;;;;;;12.03;7.50;;;4.30;99.90;;;;;;5072241;28;20311;-77
2022/11/05 08:09:35;;;;;;;13.37;8.03;;;4.60;99.90;;;;;;5068028;28;20248;-78
2022/11/05 08:12:01;;;;;;;12.60;7.40;;;4.80;99.90;;;;;;5050353;28;20235;-78
2022/11/05 08:14:28;;;;;;;11.90;7.50;;;5.10;99.90;;;;;;5047398;28;20237;-75
2022/11/05 08:16:57;;;;;;;11.83;6.20;;;5.30;99.90;;;;;;5051818;28;20230;-76
2022/11/05 08:19:23;;;;;;;16.43;7.43;;;5.70;99.90;;;;;;5047570;28;20235;-77
2022/11/05 08:21:50;;;;;;;15.53;9.37;;;6.10;99.90;;;;;;5059586;28;20229;-78
2022/11/05 08:24:17;;;;;;;10.87;6.43;;;6.50;99.90;;;;;;5047919;28;20227;-77
2022/11/05 08:26:43;;;;;;;10.87;6.20;;;7.10;99.90;;;;;;5063570;28;20229;-78
2022/11/05 08:29:10;;;;;;;11.90;5.13;;;7.70;99.90;;;;;;5046135;28;20703;-78
2022/11/05 08:31:37;;;;;;;10.83;5.57;;;8.30;99.90;;;;;;5060508;28;20782;-78
2022/11/05 08:34:06;;;;;;;10.70;4.50;;;8.90;99.90;;;;;;5058022;28;20221;-78
2022/11/05 08:36:34;;;;;;;7.23;4.03;;;9.50;99.90;;;;;;5060113;28;20293;-78
2022/11/05 08:39:01;;;;;;;7.67;3.60;;;10.20;99.90;;;;;;5039384;28;20709;-77
2022/11/05 08:41:28;;;;;;;10.00;4.27;;;10.70;99.90;;;;;;5062685;28;20234;-78
2022/11/05 08:43:55;;;;;;;6.57;3.90;;;11.20;99.90;;;;;;5042193;28;20227;-77
2022/11/05 08:46:22;;;;;;;7.57;3.77;;;11.70;99.90;;;;;;5068343;28;20228;-78
2022/11/05 08:48:49;;;;;;;9.93;3.60;;;12.10;99.90;;;;;;5064497;28;20750;-76
2022/11/05 08:51:17;;;;;;;8.53;3.40;;;12.40;99.90;;;;;;5044632;28;20228;-77
2022/11/05 08:53:43;;;;;;;10.17;3.67;;;12.80;99.90;;;;;;5044848;28;20607;-78
2022/11/05 08:56:10;;;;;;;11.03;4.00;;;13.10;99.90;;;;;;5059868;28;20719;-77
2022/11/05 08:58:37;;;;;;;7.17;3.20;;;13.50;99.90;;;;;;5055097;28;20329;-78
2022/11/05 09:01:04;;;;;;;7.27;3.47;;;13.80;99.90;;;;;;5056836;28;20215;-78
2022/11/05 09:03:31;;;;;;;7.47;2.90;;;14.10;99.90;;;;;;5045682;28;20286;-78
2022/11/05 09:05:57;;;;;;;12.93;3.70;;;14.40;99.90;;;;;;5053394;28;20226;-78
2022/11/05 09:08:25;;;;;;;6.50;2.20;;;14.70;99.90;;;;;;5038965;28;20230;-78
2022/11/05 09:10:52;;;;;;;6.17;2.30;;;15.00;99.90;;;;;;5062955;28;20225;-78
2022/11/05 09:13:19;;;;;;;5.37;1.87;;;15.30;99.90;;;;;;5062174;28;20221;-78
2022/11/05 09:15:46;;;;;;;4.83;2.03;;;15.40;99.90;;;;;;5053810;28;20235;-78
2022/11/05 09:18:13;;;;;;;6.77;3.20;;;15.60;99.90;;;;;;5045079;28;20218;-78
2022/11/05 09:20:40;;;;;;;4.03;2.00;;;15.80;99.90;;;;;;5040405;28;20260;-78
2022/11/05 09:23:07;;;;;;;4.53;2.03;;;15.90;99.90;;;;;;5058819;28;20213;-78
2022/11/05 09:25:35;;;;;;;5.07;1.70;;;16.10;99.90;;;;;;5035965;28;20795;-78
2022/11/05 09:28:07;;;;;;;5.53;2.20;;;16.30;99.90;;;;;;5063182;28;20234;-77
2022/11/05 09:30:34;;;;;;;5.97;2.00;;;16.30;99.90;;;;;;5062698;28;20250;-78
2022/11/05 09:33:00;;;;;;;4.97;2.00;;;16.40;99.90;;;;;;5038091;28;20216;-78
2022/11/05 09:35:27;;;;;;;7.30;2.27;;;16.40;99.90;;;;;;5038354;28;20255;-77
2022/11/05 09:37:54;;;;;;;7.43;1.77;;;16.50;99.90;;;;;;5070022;28;20335;-78
2022/11/05 09:40:20;;;;;;;4.77;1.80;;;16.50;99.90;;;;;;5049290;28;20227;-78
2022/11/05 09:42:53;;;;;;;6.53;1.90;;;16.60;99.90;;;;;;5049218;28;20272;-78
2022/11/05 09:45:22;;;;;;;7.23;2.40;;;16.70;99.80;;;;;;5041785;28;20316;-78
2022/11/05 09:48:01;;;;;;;4.10;2.03;;;16.80;99.90;;;;;;5061862;27;20564;-77
2022/11/05 09:50:33;;;;;;;8.33;2.30;;;16.90;99.90;;;;;;5065617;28;20233;-76
2022/11/05 09:53:00;;;;;;;5.03;1.90;;;16.90;99.90;;;;;;5077740;27;20221;-76
2022/11/05 09:55:30;;;;;;;5.60;1.93;;;17.00;99.90;;;;;;5080721;27;20308;-77
2022/11/05 09:58:00;;;;;;;4.53;1.60;;;17.00;99.90;;;;;;5084192;27;20225;-78
2022/11/05 10:00:27;;;;;;;4.30;2.03;;;17.00;99.90;;;;;;5083075;27;20333;-78
2022/11/05 10:02:57;;;;;;;3.90;1.43;;;17.00;99.90;;;;;;5072542;27;20229;-77
2022/11/05 10:05:26;;;;;;;3.17;1.50;;;16.90;99.80;;;;;;5066962;28;20309;-78
2022/11/05 10:07:57;;;;;;;4.13;1.57;;;16.90;99.40;;;;;;5083909;27;20321;-78
2022/11/05 10:10:38;;;;;;;3.43;1.80;;;16.90;99.10;;;;;;5083108;27;20658;-78
2022/11/05 10:13:17;;;;;;;6.43;2.23;;;16.80;98.60;;;;;;5082783;27;20224;-78
2022/11/05 10:15:51;;;;;;;5.07;1.77;;;16.70;98.20;;;;;;5083705;27;20767;-77
2022/11/05 10:18:24;;;;;;;4.70;2.07;;;16.60;98.20;;;;;;5083136;27;20898;-77
2022/11/05 10:20:52;;;;;;;4.37;1.90;;;16.40;98.00;;;;;;5081102;28;20233;-78
2022/11/05 10:23:21;;;;;;;5.83;1.93;;;16.30;98.30;;;;;;5080971;27;20244;-78
2022/11/05 10:25:51;;;;;;;5.60;1.83;;;16.10;98.40;;;;;;5083484;27;20307;-78
2022/11/05 10:28:19;;;;;;;4.43;2.00;;;16.00;98.60;;;;;;5082954;27;20220;-77
2022/11/05 10:30:48;;;;;;;2.97;1.50;;;15.90;98.30;;;;;;5083392;28;20234;-79
2022/11/05 10:33:21;;;;;;;4.00;1.50;;;15.70;98.50;;;;;;5080554;28;20585;-75
2022/11/05 10:35:54;;;;;;;5.30;2.50;;;15.60;98.50;;;;;;5081846;27;20223;-76
2022/11/05 10:38:21;;;;;;;4.00;1.73;;;15.50;99.00;;;;;;5082477;27;20223;-75
2022/11/05 10:40:57;;;;;;;6.13;1.83;;;15.40;98.70;;;;;;5078669;28;20231;-75
2022/11/05 10:43:31;;;;;;;6.13;1.97;;;15.30;98.30;;;;;;5081965;28;20313;-75
2022/11/05 10:46:08;;;;;;;5.43;1.70;;;15.20;98.30;;;;;;5071748;28;20228;-75
2022/11/05 10:48:49;;;;;;;3.63;1.40;;;15.10;98.10;;;;;;5079390;28;20828;-75
2022/11/05 10:51:18;;;;;;;5.67;1.80;;;15.00;98.00;;;;;;5084132;28;20218;-75
2022/11/05 10:53:52;;;;;;;4.47;3.03;;;15.00;98.50;;;;;;5078477;28;20234;-76
2022/11/05 10:56:29;;;;;;;4.43;1.77;;;14.90;98.50;;;;;;5074027;28;20220;-75
2022/11/05 10:58:58;;;;;;;4.03;1.50;;;14.80;97.90;;;;;;5069209;28;20235;-76
2022/11/05 11:01:25;;;;;;;5.23;1.83;;;14.70;98.00;;;;;;5067799;28;20226;-76
2022/11/05 11:04:03;;;;;;;4.87;2.27;;;14.60;98.40;;;;;;5065100;28;20249;-76
2022/11/05 11:06:36;;;;;;;2.83;1.57;;;14.50;98.10;;;;;;5064175;28;20237;-76
2022/11/05 11:09:06;;;;;;;3.40;1.50;;;14.30;98.10;;;;;;5062247;28;20221;-75
2022/11/05 11:11:35;;;;;;;4.03;1.63;;;14.20;98.40;;;;;;5053299;28;20233;-76
2022/11/05 11:14:05;;;;;;;3.97;1.70;;;14.10;98.70;;;;;;5064746;28;20229;-76
2022/11/05 11:16:36;;;;;;;4.43;1.63;;;14.00;98.50;;;;;;5063876;28;20226;-75
2022/11/05 11:19:04;;;;;;;5.10;1.70;;;13.80;98.30;;;;;;5066011;28;20222;-78
2022/11/05 11:21:32;;;;;;;5.27;1.70;;;13.70;98.40;;;;;;5062964;28;20258;-78
2022/11/05 11:24:02;;;;;;;5.00;1.90;;;13.60;98.80;;;;;;5066448;28;20219;-78
2022/11/05 11:26:31;;;;;;;3.50;1.83;;;13.50;99.10;;;;;;5060659;28;20638;-78
2022/11/05 11:29:00;;;;;;;4.50;2.07;;;13.50;99.00;;;;;;5062285;28;20236;-78
2022/11/05 11:31:29;;;;;;;4.53;1.90;;;13.50;99.30;;;;;;5065006;28;20262;-78
2022/11/05 11:33:59;;;;;;;4.93;2.23;;;13.50;99.10;;;;;;5063539;28;20736;-78
2022/11/05 11:36:31;;;;;;;5.00;2.13;;;13.50;99.10;;;;;;5063140;28;20221;-78
2022/11/05 11:39:03;;;;;;;4.80;2.00;;;13.50;99.10;;;;;;5051766;28;20226;-78
2022/11/05 11:41:33;;;;;;;3.60;1.87;;;13.40;98.70;;;;;;5063494;28;20284;-77
2022/11/05 11:44:04;;;;;;;4.63;1.80;;;13.50;99.00;;;;;;5063021;28;20230;-78
2022/11/05 11:46:33;;;;;;;4.07;1.90;;;13.50;99.00;;;;;;5061278;28;20231;-78
2022/11/05 11:49:01;;;;;;;5.13;2.07;;;13.50;98.90;;;;;;5064661;28;20228;-78
2022/11/05 11:51:35;;;;;;;2.97;1.53;;;13.50;99.00;;;;;;5065214;28;20730;-78
2022/11/05 11:54:05;;;;;;;5.13;1.50;;;13.40;98.90;;;;;;5049817;28;20266;-77
2022/11/05 11:56:43;;;;;;;3.33;1.47;;;13.40;99.10;;;;;;5063072;28;20690;-83
2022/11/05 11:59:19;;;;;;;4.23;1.47;;;13.50;99.00;;;;;;5072505;28;20242;-83
2022/11/05 12:02:25;;;;;;;3.50;1.60;;;13.50;98.90;;;;;;5066638;28;20264;-81
2022/11/05 12:05:24;;;;;;;5.40;1.73;;;13.50;98.60;;;;;;5052789;28;20307;-82
2022/11/05 12:07:53;;;;;;;3.27;1.60;;;13.50;98.70;;;;;;5053731;28;20646;-81
2022/11/05 12:10:36;;;;;;;3.83;1.53;;;13.40;99.00;;;;;;5045887;28;20227;-81
2022/11/05 12:13:28;;;;;;;4.20;1.40;;;13.40;98.90;;;;;;5061178;28;20702;-81
2022/11/05 12:15:57;;;;;;;3.57;1.67;;;13.30;98.90;;;;;;5059465;28;20311;-83
2022/11/05 12:18:33;;;;;;;4.63;1.87;;;13.30;99.10;;;;;;5060952;28;20586;-81
2022/11/05 12:21:12;;;;;;;5.47;3.17;;;13.30;98.80;;;;;;5069032;28;20716;-82
2022/11/05 12:23:53;;;;;;;7.30;1.90;;;13.20;98.90;;;;;;5059415;28;20233;-81
2022/11/05 12:26:28;;;;;;;4.97;1.93;;;13.20;99.00;;;;;;5052480;28;20230;-82
2022/11/05 12:29:19;;;;;;;4.40;1.73;;;13.10;99.10;;;;;;5073529;28;20228;-82
2022/11/05 12:31:59;;;;;;;3.57;1.67;;;13.00;99.10;;;;;;5065965;28;20617;-81
2022/11/05 12:34:42;;;;;;;4.00;1.70;;;12.80;99.00;;;;;;5056672;28;20683;-80
2022/11/05 12:37:20;;;;;;;4.53;1.80;;;12.70;99.10;;;;;;5060366;28;20210;-80
2022/11/05 12:40:02;;;;;;;4.03;1.53;;;12.60;99.50;;;;;;5059138;28;20705;-80
2022/11/05 12:42:42;;;;;;;2.60;1.50;;;12.50;99.40;;;;;;5064776;28;20225;-81
2022/11/05 12:45:22;;;;;;;6.50;2.00;;;12.50;99.70;;;;;;5060740;28;20249;-80
2022/11/05 12:48:05;;;;;;;5.47;2.20;;;12.40;99.90;;;;;;5066581;28;20230;-81
2022/11/05 12:50:41;;;;;;;2.60;1.70;;;12.30;99.90;;;;;;5054458;28;20233;-81
2022/11/05 12:53:30;;;;;;;4.40;1.90;;;12.30;99.90;;;;;;5059899;28;20560;-81
2022/11/05 12:56:01;;;;;;;3.57;1.80;;;12.40;99.90;;;;;;5060308;28;20581;-81
2022/11/05 12:58:34;;;;;;;5.00;1.73;;;12.40;99.90;;;;;;5054612;28;20317;-81
2022/11/05 13:01:04;;;;;;;5.77;2.07;;;12.30;99.90;;;;;;5061768;28;21271;-84
2022/11/05 13:03:40;;;;;;;8.10;6.10;;;12.30;99.90;;;;;;5055120;28;20222;-82
2022/11/05 13:06:09;;;;;;;8.10;2.57;;;12.20;99.90;;;;;;5056393;28;20781;-82
2022/11/05 13:08:41;;;;;;;7.00;3.40;;;12.20;99.90;;;;;;5061140;28;20292;-82
2022/11/05 13:11:16;;;;;;;4.57;2.40;;;12.20;99.90;;;;;;5057643;28;21077;-82
2022/11/05 13:13:48;;;;;;;4.17;2.10;;;12.20;99.90;;;;;;5050942;28;20224;-83
2022/11/05 13:16:23;;;;;;;5.80;2.30;;;12.20;99.90;;;;;;5052645;28;20312;-83
2022/11/05 13:18:53;;;;;;;5.97;2.20;;;12.10;99.90;;;;;;5050477;28;20257;-82
2022/11/05 13:21:23;;;;;;;7.03;1.93;;;12.10;99.90;;;;;;5057543;28;20237;-82
2022/11/05 13:23:54;;;;;;;6.40;1.77;;;12.10;99.90;;;;;;5074023;28;20220;-81
2022/11/05 13:26:27;;;;;;;5.10;2.10;;;12.10;99.90;;;;;;5062650;28;20684;-81
2022/11/05 13:29:03;;;;;;;4.03;1.93;;;12.00;99.90;;;;;;5051041;28;20223;-80
2022/11/05 13:31:33;;;;;;;3.23;1.90;;;11.90;99.90;;;;;;5051562;28;20227;-80
2022/11/05 13:34:04;;;;;;;6.30;2.00;;;11.90;99.90;;;;;;5054240;28;20338;-81
2022/11/05 13:39:34;;;;;;;4.40;1.73;;;11.90;99.90;;;;;;5022770;28;20234;-80
2022/11/05 13:42:22;;;;;;;4.60;1.87;;;11.90;99.90;;;;;;5052181;28;20228;-80
2022/11/05 13:45:06;;;;;;;2.37;1.73;;;11.80;99.90;;;;;;5051202;28;20306;-80
2022/11/05 13:47:59;;;;;;;3.20;1.70;;;11.90;99.90;;;;;;5046701;28;20240;-81
2022/11/05 13:51:02;;;;;;;4.63;2.23;;;11.80;99.90;;;;;;5054092;28;20326;-81
2022/11/05 13:53:58;;;;;;;4.77;2.13;;;11.80;99.90;;;;;;5054735;28;20222;-81